sensor_id;sensor_type;location;lat;lon;timestamp;P1;durP1;ratioP1;P2;durP2;ratioP2
64142;SDS011;50437;51.970;5.904;2023-03-07T00:01:58;10.73;;;8.05;;
64142;SDS011;50437;51.970;5.904;2023-03-07T00:04:24;10.52;;;8.43;;
64142;SDS011;50437;51.970;5.904;2023-03-07T00:06:50;8.75;;;7.45;;
64142;SDS011;50437;51.970;5.904;2023-03-07T00:09:16;9.88;;;8.02;;
64142;SDS011;50437;51.970;5.904;2023-03-07T00:11:42;8.50;;;7.22;;
64142;SDS011;50437;51.970;5.904;2023-03-07T00:14:08;10.80;;;7.53;;
64142;SDS011;50437;51.970;5.904;2023-03-07T00:16:34;12.60;;;7.72;;
64142;SDS011;50437;51.970;5.904;2023-03-07T00:19:00;11.38;;;7.80;;
64142;SDS011;50437;51.970;5.904;2023-03-07T00:21:27;10.45;;;7.10;;
64142;SDS011;50437;51.970;5.904;2023-03-07T00:23:56;9.82;;;7.35;;
64142;SDS011;50437;51.970;5.904;2023-03-07T00:26:22;9.70;;;8.20;;
64142;SDS011;50437;51.970;5.904;2023-03-07T00:28:50;9.77;;;7.55;;
64142;SDS011;50437;51.970;5.904;2023-03-07T00:31:17;9.52;;;7.35;;
64142;SDS011;50437;51.970;5.904;2023-03-07T00:33:44;11.73;;;7.63;;
64142;SDS011;50437;51.970;5.904;2023-03-07T00:38:41;10.57;;;7.10;;
64142;SDS011;50437;51.970;5.904;2023-03-07T00:41:10;8.98;;;6.68;;
64142;SDS011;50437;51.970;5.904;2023-03-07T00:43:38;8.15;;;6.45;;
64142;SDS011;50437;51.970;5.904;2023-03-07T00:46:04;8.57;;;5.47;;
64142;SDS011;50437;51.970;5.904;2023-03-07T00:51:03;8.27;;;4.95;;
64142;SDS011;50437;51.970;5.904;2023-03-07T00:53:30;9.40;;;4.97;;
64142;SDS011;50437;51.970;5.904;2023-03-07T00:56:01;5.20;;;4.28;;
64142;SDS011;50437;51.970;5.904;2023-03-07T00:58:31;6.18;;;4.55;;
64142;SDS011;50437;51.970;5.904;2023-03-07T01:01:00;7.90;;;5.30;;
64142;SDS011;50437;51.970;5.904;2023-03-07T01:03:28;7.55;;;5.00;;
64142;SDS011;50437;51.970;5.904;2023-03-07T01:05:55;9.57;;;6.25;;
64142;SDS011;50437;51.970;5.904;2023-03-07T01:08:22;9.85;;;7.88;;
64142;SDS011;50437;51.970;5.904;2023-03-07T01:10:49;11.10;;;7.22;;
64142;SDS011;50437;51.970;5.904;2023-03-07T01:13:16;12.93;;;9.05;;
64142;SDS011;50437;51.970;5.904;2023-03-07T01:15:44;12.43;;;8.27;;
64142;SDS011;50437;51.970;5.904;2023-03-07T01:18:10;12.93;;;9.20;;
64142;SDS011;50437;51.970;5.904;2023-03-07T01:20:37;16.40;;;9.15;;
64142;SDS011;50437;51.970;5.904;2023-03-07T01:23:04;22.50;;;9.68;;
64142;SDS011;50437;51.970;5.904;2023-03-07T01:25:35;16.05;;;11.05;;
64142;SDS011;50437;51.970;5.904;2023-03-07T01:28:06;17.58;;;11.50;;
64142;SDS011;50437;51.970;5.904;2023-03-07T01:30:37;17.52;;;10.32;;
64142;SDS011;50437;51.970;5.904;2023-03-07T01:33:03;16.60;;;11.93;;
64142;SDS011;50437;51.970;5.904;2023-03-07T01:35:34;19.27;;;10.45;;
64142;SDS011;50437;51.970;5.904;2023-03-07T01:38:02;21.67;;;11.38;;
64142;SDS011;50437;51.970;5.904;2023-03-07T01:40:31;15.82;;;10.57;;
64142;SDS011;50437;51.970;5.904;2023-03-07T01:48:17;17.05;;;10.30;;
64142;SDS011;50437;51.970;5.904;2023-03-07T01:50:44;17.52;;;9.48;;
64142;SDS011;50437;51.970;5.904;2023-03-07T01:53:10;16.53;;;10.70;;
64142;SDS011;50437;51.970;5.904;2023-03-07T01:55:37;18.75;;;8.77;;
64142;SDS011;50437;51.970;5.904;2023-03-07T01:58:10;16.17;;;9.43;;
64142;SDS011;50437;51.970;5.904;2023-03-07T02:00:38;16.40;;;9.48;;
64142;SDS011;50437;51.970;5.904;2023-03-07T02:05:54;16.95;;;8.73;;
64142;SDS011;50437;51.970;5.904;2023-03-07T02:08:23;13.50;;;8.90;;
64142;SDS011;50437;51.970;5.904;2023-03-07T02:10:53;15.25;;;10.10;;
64142;SDS011;50437;51.970;5.904;2023-03-07T02:13:19;15.00;;;8.63;;
64142;SDS011;50437;51.970;5.904;2023-03-07T02:15:46;16.92;;;8.98;;
64142;SDS011;50437;51.970;5.904;2023-03-07T02:18:15;16.02;;;7.68;;
64142;SDS011;50437;51.970;5.904;2023-03-07T02:20:52;17.10;;;9.32;;
64142;SDS011;50437;51.970;5.904;2023-03-07T02:23:43;21.60;;;9.70;;
64142;SDS011;50437;51.970;5.904;2023-03-07T02:26:44;16.27;;;8.38;;
64142;SDS011;50437;51.970;5.904;2023-03-07T02:29:12;13.32;;;8.63;;
64142;SDS011;50437;51.970;5.904;2023-03-07T02:31:44;15.77;;;9.90;;
64142;SDS011;50437;51.970;5.904;2023-03-07T02:34:25;15.73;;;9.43;;
64142;SDS011;50437;51.970;5.904;2023-03-07T02:37:17;15.38;;;9.48;;
64142;SDS011;50437;51.970;5.904;2023-03-07T02:39:47;23.60;;;11.88;;
64142;SDS011;50437;51.970;5.904;2023-03-07T02:42:25;15.10;;;11.07;;
64142;SDS011;50437;51.970;5.904;2023-03-07T02:45:06;19.85;;;10.43;;
64142;SDS011;50437;51.970;5.904;2023-03-07T02:47:38;15.63;;;9.63;;
64142;SDS011;50437;51.970;5.904;2023-03-07T02:50:08;12.73;;;8.10;;
64142;SDS011;50437;51.970;5.904;2023-03-07T02:52:38;12.10;;;7.57;;
64142;SDS011;50437;51.970;5.904;2023-03-07T02:55:06;13.57;;;8.75;;
64142;SDS011;50437;51.970;5.904;2023-03-07T02:57:39;16.50;;;8.38;;
64142;SDS011;50437;51.970;5.904;2023-03-07T03:00:06;13.00;;;9.23;;
64142;SDS011;50437;51.970;5.904;2023-03-07T03:02:35;13.80;;;9.82;;
64142;SDS011;50437;51.970;5.904;2023-03-07T03:05:01;18.20;;;8.05;;
64142;SDS011;50437;51.970;5.904;2023-03-07T03:07:27;10.68;;;7.65;;
64142;SDS011;50437;51.970;5.904;2023-03-07T03:09:53;15.10;;;7.63;;
64142;SDS011;50437;51.970;5.904;2023-03-07T03:12:20;12.88;;;7.50;;
64142;SDS011;50437;51.970;5.904;2023-03-07T03:14:46;13.45;;;8.10;;
64142;SDS011;50437;51.970;5.904;2023-03-07T03:17:12;10.50;;;7.10;;
64142;SDS011;50437;51.970;5.904;2023-03-07T03:19:39;13.38;;;7.40;;
64142;SDS011;50437;51.970;5.904;2023-03-07T03:22:05;15.43;;;7.82;;
64142;SDS011;50437;51.970;5.904;2023-03-07T03:24:39;10.75;;;7.03;;
64142;SDS011;50437;51.970;5.904;2023-03-07T03:27:09;12.07;;;5.72;;
64142;SDS011;50437;51.970;5.904;2023-03-07T03:29:35;9.85;;;6.00;;
64142;SDS011;50437;51.970;5.904;2023-03-07T03:32:03;10.68;;;6.97;;
64142;SDS011;50437;51.970;5.904;2023-03-07T03:34:29;19.13;;;7.60;;
64142;SDS011;50437;51.970;5.904;2023-03-07T03:36:56;13.15;;;7.97;;
64142;SDS011;50437;51.970;5.904;2023-03-07T03:39:22;9.20;;;6.13;;
64142;SDS011;50437;51.970;5.904;2023-03-07T03:41:54;13.20;;;7.40;;
64142;SDS011;50437;51.970;5.904;2023-03-07T03:44:22;12.18;;;7.38;;
64142;SDS011;50437;51.970;5.904;2023-03-07T03:46:49;13.52;;;8.77;;
64142;SDS011;50437;51.970;5.904;2023-03-07T03:49:20;14.63;;;8.90;;
64142;SDS011;50437;51.970;5.904;2023-03-07T03:51:49;15.90;;;9.23;;
64142;SDS011;50437;51.970;5.904;2023-03-07T03:54:15;13.40;;;9.02;;
64142;SDS011;50437;51.970;5.904;2023-03-07T03:56:42;13.77;;;9.13;;
64142;SDS011;50437;51.970;5.904;2023-03-07T03:59:08;18.47;;;10.40;;
64142;SDS011;50437;51.970;5.904;2023-03-07T04:01:34;12.75;;;9.55;;
64142;SDS011;50437;51.970;5.904;2023-03-07T04:04:00;22.25;;;10.38;;
64142;SDS011;50437;51.970;5.904;2023-03-07T04:06:28;16.55;;;10.25;;
64142;SDS011;50437;51.970;5.904;2023-03-07T04:08:56;19.15;;;10.48;;
64142;SDS011;50437;51.970;5.904;2023-03-07T04:11:22;18.60;;;12.07;;
64142;SDS011;50437;51.970;5.904;2023-03-07T04:13:49;21.25;;;11.23;;
64142;SDS011;50437;51.970;5.904;2023-03-07T04:16:16;25.15;;;12.32;;
64142;SDS011;50437;51.970;5.904;2023-03-07T04:18:42;18.35;;;11.80;;
64142;SDS011;50437;51.970;5.904;2023-03-07T04:21:09;23.65;;;12.15;;
64142;SDS011;50437;51.970;5.904;2023-03-07T04:23:37;21.63;;;10.43;;
64142;SDS011;50437;51.970;5.904;2023-03-07T04:26:04;24.00;;;12.18;;
64142;SDS011;50437;51.970;5.904;2023-03-07T04:28:33;24.70;;;12.48;;
64142;SDS011;50437;51.970;5.904;2023-03-07T04:31:18;22.92;;;11.70;;
64142;SDS011;50437;51.970;5.904;2023-03-07T04:33:51;28.05;;;14.18;;
64142;SDS011;50437;51.970;5.904;2023-03-07T04:36:19;24.35;;;12.13;;
64142;SDS011;50437;51.970;5.904;2023-03-07T04:38:46;21.92;;;10.63;;
64142;SDS011;50437;51.970;5.904;2023-03-07T04:43:41;17.45;;;10.07;;
64142;SDS011;50437;51.970;5.904;2023-03-07T04:46:09;17.67;;;10.15;;
64142;SDS011;50437;51.970;5.904;2023-03-07T04:48:37;19.48;;;9.13;;
64142;SDS011;50437;51.970;5.904;2023-03-07T04:51:05;22.05;;;10.88;;
64142;SDS011;50437;51.970;5.904;2023-03-07T04:53:32;22.20;;;11.32;;
64142;SDS011;50437;51.970;5.904;2023-03-07T04:55:59;15.20;;;8.00;;
64142;SDS011;50437;51.970;5.904;2023-03-07T04:58:26;11.38;;;7.72;;
64142;SDS011;50437;51.970;5.904;2023-03-07T05:03:21;25.85;;;9.98;;
64142;SDS011;50437;51.970;5.904;2023-03-07T05:05:59;14.60;;;8.60;;
64142;SDS011;50437;51.970;5.904;2023-03-07T05:08:34;15.18;;;8.07;;
64142;SDS011;50437;51.970;5.904;2023-03-07T05:11:00;15.88;;;8.75;;
64142;SDS011;50437;51.970;5.904;2023-03-07T05:15:54;16.95;;;7.75;;
64142;SDS011;50437;51.970;5.904;2023-03-07T05:18:25;18.17;;;8.85;;
64142;SDS011;50437;51.970;5.904;2023-03-07T05:20:59;19.83;;;6.85;;
64142;SDS011;50437;51.970;5.904;2023-03-07T05:23:26;19.52;;;8.23;;
64142;SDS011;50437;51.970;5.904;2023-03-07T05:25:53;20.15;;;8.00;;
64142;SDS011;50437;51.970;5.904;2023-03-07T05:28:24;15.65;;;8.13;;
64142;SDS011;50437;51.970;5.904;2023-03-07T05:30:51;27.63;;;13.18;;
64142;SDS011;50437;51.970;5.904;2023-03-07T05:33:17;16.75;;;10.23;;
64142;SDS011;50437;51.970;5.904;2023-03-07T05:35:47;14.15;;;7.63;;
64142;SDS011;50437;51.970;5.904;2023-03-07T05:38:13;18.08;;;7.20;;
64142;SDS011;50437;51.970;5.904;2023-03-07T05:40:40;12.32;;;6.40;;
64142;SDS011;50437;51.970;5.904;2023-03-07T05:43:08;28.33;;;8.20;;
64142;SDS011;50437;51.970;5.904;2023-03-07T05:45:34;12.85;;;7.85;;
64142;SDS011;50437;51.970;5.904;2023-03-07T05:48:03;16.10;;;9.23;;
64142;SDS011;50437;51.970;5.904;2023-03-07T05:50:30;15.25;;;8.02;;
64142;SDS011;50437;51.970;5.904;2023-03-07T05:52:57;18.83;;;7.63;;
64142;SDS011;50437;51.970;5.904;2023-03-07T05:55:26;19.52;;;9.13;;
64142;SDS011;50437;51.970;5.904;2023-03-07T05:57:53;25.63;;;8.75;;
64142;SDS011;50437;51.970;5.904;2023-03-07T06:00:22;17.60;;;6.53;;
64142;SDS011;50437;51.970;5.904;2023-03-07T06:02:54;11.68;;;5.75;;
64142;SDS011;50437;51.970;5.904;2023-03-07T06:05:20;17.05;;;4.90;;
64142;SDS011;50437;51.970;5.904;2023-03-07T06:07:47;11.03;;;4.93;;
64142;SDS011;50437;51.970;5.904;2023-03-07T06:10:14;7.20;;;4.78;;
64142;SDS011;50437;51.970;5.904;2023-03-07T06:12:41;7.50;;;3.92;;
64142;SDS011;50437;51.970;5.904;2023-03-07T06:15:07;7.50;;;4.30;;
64142;SDS011;50437;51.970;5.904;2023-03-07T06:17:34;9.63;;;3.42;;
64142;SDS011;50437;51.970;5.904;2023-03-07T06:20:03;8.75;;;4.50;;
64142;SDS011;50437;51.970;5.904;2023-03-07T06:22:30;6.25;;;4.05;;
64142;SDS011;50437;51.970;5.904;2023-03-07T06:25:01;11.27;;;3.25;;
64142;SDS011;50437;51.970;5.904;2023-03-07T06:27:30;7.95;;;1.95;;
64142;SDS011;50437;51.970;5.904;2023-03-07T06:30:04;4.18;;;2.50;;
64142;SDS011;50437;51.970;5.904;2023-03-07T06:32:32;6.88;;;3.15;;
64142;SDS011;50437;51.970;5.904;2023-03-07T06:34:58;9.25;;;4.45;;
64142;SDS011;50437;51.970;5.904;2023-03-07T06:39:52;4.95;;;1.60;;
64142;SDS011;50437;51.970;5.904;2023-03-07T06:42:19;6.50;;;0.52;;
64142;SDS011;50437;51.970;5.904;2023-03-07T06:44:52;3.20;;;0.47;;
64142;SDS011;50437;51.970;5.904;2023-03-07T06:47:19;2.78;;;0.40;;
64142;SDS011;50437;51.970;5.904;2023-03-07T06:49:46;5.18;;;0.40;;
64142;SDS011;50437;51.970;5.904;2023-03-07T06:52:12;1.73;;;0.77;;
64142;SDS011;50437;51.970;5.904;2023-03-07T06:54:38;3.27;;;0.40;;
64142;SDS011;50437;51.970;5.904;2023-03-07T06:57:07;5.65;;;0.30;;
64142;SDS011;50437;51.970;5.904;2023-03-07T06:59:35;3.08;;;0.70;;
64142;SDS011;50437;51.970;5.904;2023-03-07T07:02:02;3.27;;;0.40;;
64142;SDS011;50437;51.970;5.904;2023-03-07T07:04:32;0.85;;;0.30;;
64142;SDS011;50437;51.970;5.904;2023-03-07T07:06:58;3.45;;;0.20;;
64142;SDS011;50437;51.970;5.904;2023-03-07T07:09:26;3.42;;;0.95;;
64142;SDS011;50437;51.970;5.904;2023-03-07T07:11:53;2.05;;;0.30;;
64142;SDS011;50437;51.970;5.904;2023-03-07T07:14:25;4.63;;;0.20;;
64142;SDS011;50437;51.970;5.904;2023-03-07T07:16:54;5.13;;;0.60;;
64142;SDS011;50437;51.970;5.904;2023-03-07T07:19:21;5.22;;;0.30;;
64142;SDS011;50437;51.970;5.904;2023-03-07T07:21:47;7.25;;;0.30;;
64142;SDS011;50437;51.970;5.904;2023-03-07T07:24:16;4.47;;;0.38;;
64142;SDS011;50437;51.970;5.904;2023-03-07T07:26:45;4.10;;;0.40;;
64142;SDS011;50437;51.970;5.904;2023-03-07T07:29:11;3.30;;;0.30;;
64142;SDS011;50437;51.970;5.904;2023-03-07T07:31:38;3.90;;;0.40;;
64142;SDS011;50437;51.970;5.904;2023-03-07T07:34:04;4.40;;;0.30;;
64142;SDS011;50437;51.970;5.904;2023-03-07T07:36:33;8.18;;;0.80;;
64142;SDS011;50437;51.970;5.904;2023-03-07T07:39:04;8.35;;;0.57;;
64142;SDS011;50437;51.970;5.904;2023-03-07T07:41:33;6.03;;;0.70;;
64142;SDS011;50437;51.970;5.904;2023-03-07T07:44:00;3.60;;;0.50;;
64142;SDS011;50437;51.970;5.904;2023-03-07T07:46:37;1.17;;;0.40;;
64142;SDS011;50437;51.970;5.904;2023-03-07T07:49:06;2.30;;;0.50;;
64142;SDS011;50437;51.970;5.904;2023-03-07T07:51:35;3.78;;;0.43;;
64142;SDS011;50437;51.970;5.904;2023-03-07T07:54:01;2.40;;;0.40;;
64142;SDS011;50437;51.970;5.904;2023-03-07T07:56:27;4.27;;;0.30;;
64142;SDS011;50437;51.970;5.904;2023-03-07T07:59:02;4.45;;;0.60;;
64142;SDS011;50437;51.970;5.904;2023-03-07T08:01:32;2.58;;;0.30;;
64142;SDS011;50437;51.970;5.904;2023-03-07T08:04:07;5.82;;;0.30;;
64142;SDS011;50437;51.970;5.904;2023-03-07T08:06:36;9.32;;;0.40;;
64142;SDS011;50437;51.970;5.904;2023-03-07T08:09:02;4.37;;;0.50;;
64142;SDS011;50437;51.970;5.904;2023-03-07T08:11:30;2.63;;;0.40;;
64142;SDS011;50437;51.970;5.904;2023-03-07T08:13:56;4.53;;;0.40;;
64142;SDS011;50437;51.970;5.904;2023-03-07T08:16:22;5.75;;;0.50;;
64142;SDS011;50437;51.970;5.904;2023-03-07T08:18:52;3.17;;;0.38;;
64142;SDS011;50437;51.970;5.904;2023-03-07T08:21:20;2.35;;;0.88;;
64142;SDS011;50437;51.970;5.904;2023-03-07T08:23:48;0.95;;;0.40;;
64142;SDS011;50437;51.970;5.904;2023-03-07T08:26:14;2.67;;;0.73;;
64142;SDS011;50437;51.970;5.904;2023-03-07T08:28:42;7.30;;;0.90;;
64142;SDS011;50437;51.970;5.904;2023-03-07T08:31:09;5.40;;;0.80;;
64142;SDS011;50437;51.970;5.904;2023-03-07T08:33:48;3.25;;;1.42;;
64142;SDS011;50437;51.970;5.904;2023-03-07T08:36:15;3.05;;;1.20;;
64142;SDS011;50437;51.970;5.904;2023-03-07T08:38:41;5.50;;;1.13;;
64142;SDS011;50437;51.970;5.904;2023-03-07T08:41:08;4.30;;;1.05;;
64142;SDS011;50437;51.970;5.904;2023-03-07T08:43:35;6.28;;;1.40;;
64142;SDS011;50437;51.970;5.904;2023-03-07T08:46:02;4.82;;;1.95;;
64142;SDS011;50437;51.970;5.904;2023-03-07T08:48:29;5.00;;;1.85;;
64142;SDS011;50437;51.970;5.904;2023-03-07T08:50:55;6.47;;;2.77;;
64142;SDS011;50437;51.970;5.904;2023-03-07T08:53:21;6.77;;;1.70;;
64142;SDS011;50437;51.970;5.904;2023-03-07T08:55:48;2.33;;;1.98;;
64142;SDS011;50437;51.970;5.904;2023-03-07T08:58:14;3.87;;;2.10;;
64142;SDS011;50437;51.970;5.904;2023-03-07T09:00:40;9.45;;;3.15;;
64142;SDS011;50437;51.970;5.904;2023-03-07T09:03:06;4.15;;;2.78;;
64142;SDS011;50437;51.970;5.904;2023-03-07T09:05:35;10.45;;;3.92;;
64142;SDS011;50437;51.970;5.904;2023-03-07T09:08:03;8.30;;;4.50;;
64142;SDS011;50437;51.970;5.904;2023-03-07T09:10:31;5.32;;;3.47;;
64142;SDS011;50437;51.970;5.904;2023-03-07T09:12:57;5.53;;;4.13;;
64142;SDS011;50437;51.970;5.904;2023-03-07T09:15:23;10.00;;;6.10;;
64142;SDS011;50437;51.970;5.904;2023-03-07T09:17:50;9.43;;;6.00;;
64142;SDS011;50437;51.970;5.904;2023-03-07T09:20:16;7.95;;;4.35;;
64142;SDS011;50437;51.970;5.904;2023-03-07T09:22:43;3.28;;;2.28;;
64142;SDS011;50437;51.970;5.904;2023-03-07T09:25:11;10.07;;;4.00;;
64142;SDS011;50437;51.970;5.904;2023-03-07T09:27:37;5.05;;;2.85;;
64142;SDS011;50437;51.970;5.904;2023-03-07T09:30:04;7.73;;;4.80;;
64142;SDS011;50437;51.970;5.904;2023-03-07T09:32:31;7.15;;;3.67;;
64142;SDS011;50437;51.970;5.904;2023-03-07T09:37:24;4.20;;;2.90;;
64142;SDS011;50437;51.970;5.904;2023-03-07T09:39:50;4.55;;;4.07;;
64142;SDS011;50437;51.970;5.904;2023-03-07T09:56:23;11.20;;;4.03;;
64142;SDS011;50437;51.970;5.904;2023-03-07T10:05:00;9.98;;;5.63;;
64142;SDS011;50437;51.970;5.904;2023-03-07T10:07:47;3.33;;;2.67;;
64142;SDS011;50437;51.970;5.904;2023-03-07T10:10:23;4.22;;;3.15;;
64142;SDS011;50437;51.970;5.904;2023-03-07T10:13:06;2.53;;;1.95;;
64142;SDS011;50437;51.970;5.904;2023-03-07T10:15:45;6.20;;;2.75;;
64142;SDS011;50437;51.970;5.904;2023-03-07T10:24:10;3.97;;;2.42;;
64142;SDS011;50437;51.970;5.904;2023-03-07T10:27:01;2.55;;;1.52;;
64142;SDS011;50437;51.970;5.904;2023-03-07T10:29:35;1.90;;;1.70;;
64142;SDS011;50437;51.970;5.904;2023-03-07T10:32:19;2.50;;;1.88;;
64142;SDS011;50437;51.970;5.904;2023-03-07T10:35:11;1.95;;;1.55;;
64142;SDS011;50437;51.970;5.904;2023-03-07T10:37:46;4.45;;;1.20;;
64142;SDS011;50437;51.970;5.904;2023-03-07T10:40:29;1.23;;;0.90;;
64142;SDS011;50437;51.970;5.904;2023-03-07T10:42:59;2.25;;;1.00;;
64142;SDS011;50437;51.970;5.904;2023-03-07T10:45:29;2.55;;;0.70;;
64142;SDS011;50437;51.970;5.904;2023-03-07T10:48:00;2.95;;;1.23;;
64142;SDS011;50437;51.970;5.904;2023-03-07T10:50:36;3.08;;;1.55;;
64142;SDS011;50437;51.970;5.904;2023-03-07T10:56:24;2.08;;;1.10;;
64142;SDS011;50437;51.970;5.904;2023-03-07T10:59:03;3.05;;;0.80;;
64142;SDS011;50437;51.970;5.904;2023-03-07T11:01:31;2.03;;;0.80;;
64142;SDS011;50437;51.970;5.904;2023-03-07T11:04:02;2.97;;;1.77;;
64142;SDS011;50437;51.970;5.904;2023-03-07T11:06:58;3.33;;;1.17;;
64142;SDS011;50437;51.970;5.904;2023-03-07T11:11:54;1.63;;;0.50;;
64142;SDS011;50437;51.970;5.904;2023-03-07T11:14:25;2.00;;;0.80;;
64142;SDS011;50437;51.970;5.904;2023-03-07T11:19:37;3.92;;;0.40;;
64142;SDS011;50437;51.970;5.904;2023-03-07T11:22:18;2.28;;;0.65;;
64142;SDS011;50437;51.970;5.904;2023-03-07T11:24:52;2.38;;;0.75;;
64142;SDS011;50437;51.970;5.904;2023-03-07T11:27:31;3.80;;;0.95;;
64142;SDS011;50437;51.970;5.904;2023-03-07T11:30:04;6.53;;;1.27;;
64142;SDS011;50437;51.970;5.904;2023-03-07T11:32:31;1.92;;;0.80;;
64142;SDS011;50437;51.970;5.904;2023-03-07T11:35:11;2.47;;;1.05;;
64142;SDS011;50437;51.970;5.904;2023-03-07T11:37:55;4.28;;;0.50;;
64142;SDS011;50437;51.970;5.904;2023-03-07T11:40:26;7.45;;;0.70;;
64142;SDS011;50437;51.970;5.904;2023-03-07T11:51:12;2.00;;;0.52;;
64142;SDS011;50437;51.970;5.904;2023-03-07T11:56:40;1.65;;;0.60;;
64142;SDS011;50437;51.970;5.904;2023-03-07T12:01:56;4.70;;;0.77;;
64142;SDS011;50437;51.970;5.904;2023-03-07T12:23:17;0.85;;;0.40;;
64142;SDS011;50437;51.970;5.904;2023-03-07T12:25:52;3.33;;;0.40;;
64142;SDS011;50437;51.970;5.904;2023-03-07T12:28:31;2.58;;;0.40;;
64142;SDS011;50437;51.970;5.904;2023-03-07T12:31:23;3.45;;;0.52;;
64142;SDS011;50437;51.970;5.904;2023-03-07T12:36:52;1.52;;;0.30;;
64142;SDS011;50437;51.970;5.904;2023-03-07T12:42:02;0.70;;;0.30;;
64142;SDS011;50437;51.970;5.904;2023-03-07T12:47:10;3.95;;;0.30;;
64142;SDS011;50437;51.970;5.904;2023-03-07T12:55:29;3.13;;;0.20;;
64142;SDS011;50437;51.970;5.904;2023-03-07T13:00:42;2.05;;;0.20;;
64142;SDS011;50437;51.970;5.904;2023-03-07T13:03:17;2.28;;;0.10;;
64142;SDS011;50437;51.970;5.904;2023-03-07T13:05:53;1.90;;;0.32;;
64142;SDS011;50437;51.970;5.904;2023-03-07T13:08:23;1.95;;;0.10;;
64142;SDS011;50437;51.970;5.904;2023-03-07T13:10:50;2.55;;;0.10;;
64142;SDS011;50437;51.970;5.904;2023-03-07T13:16:09;0.75;;;0.10;;
64142;SDS011;50437;51.970;5.904;2023-03-07T13:18:37;0.30;;;0.10;;
64142;SDS011;50437;51.970;5.904;2023-03-07T13:23:38;2.63;;;0.20;;
64142;SDS011;50437;51.970;5.904;2023-03-07T13:26:04;3.13;;;0.40;;
64142;SDS011;50437;51.970;5.904;2023-03-07T13:28:35;6.38;;;0.10;;
64142;SDS011;50437;51.970;5.904;2023-03-07T13:33:37;2.17;;;0.10;;
64142;SDS011;50437;51.970;5.904;2023-03-07T13:36:11;4.03;;;0.17;;
64142;SDS011;50437;51.970;5.904;2023-03-07T13:38:56;3.72;;;0.25;;
64142;SDS011;50437;51.970;5.904;2023-03-07T13:47:02;6.40;;;0.30;;
64142;SDS011;50437;51.970;5.904;2023-03-07T13:49:36;3.83;;;0.20;;
64142;SDS011;50437;51.970;5.904;2023-03-07T13:52:14;0.55;;;0.43;;
64142;SDS011;50437;51.970;5.904;2023-03-07T13:54:48;0.98;;;0.20;;
64142;SDS011;50437;51.970;5.904;2023-03-07T13:57:16;1.88;;;0.28;;
64142;SDS011;50437;51.970;5.904;2023-03-07T13:59:48;1.55;;;0.22;;
64142;SDS011;50437;51.970;5.904;2023-03-07T14:02:15;1.13;;;0.20;;
64142;SDS011;50437;51.970;5.904;2023-03-07T14:04:43;0.85;;;0.22;;
64142;SDS011;50437;51.970;5.904;2023-03-07T14:07:21;2.22;;;0.20;;
64142;SDS011;50437;51.970;5.904;2023-03-07T14:09:54;4.43;;;0.30;;
64142;SDS011;50437;51.970;5.904;2023-03-07T14:12:34;3.15;;;0.45;;
64142;SDS011;50437;51.970;5.904;2023-03-07T14:29:11;5.22;;;0.13;;
64142;SDS011;50437;51.970;5.904;2023-03-07T14:31:41;0.82;;;0.00;;
64142;SDS011;50437;51.970;5.904;2023-03-07T14:34:15;2.15;;;0.40;;
64142;SDS011;50437;51.970;5.904;2023-03-07T14:36:55;3.08;;;0.75;;
64142;SDS011;50437;51.970;5.904;2023-03-07T14:39:21;1.00;;;0.20;;
64142;SDS011;50437;51.970;5.904;2023-03-07T14:52:24;3.30;;;0.20;;
64142;SDS011;50437;51.970;5.904;2023-03-07T14:54:52;0.82;;;0.20;;
64142;SDS011;50437;51.970;5.904;2023-03-07T15:00:29;3.58;;;0.30;;
64142;SDS011;50437;51.970;5.904;2023-03-07T15:03:00;2.65;;;0.20;;
64142;SDS011;50437;51.970;5.904;2023-03-07T15:08:19;1.08;;;0.20;;
64142;SDS011;50437;51.970;5.904;2023-03-07T15:11:16;1.08;;;0.30;;
64142;SDS011;50437;51.970;5.904;2023-03-07T15:14:07;2.60;;;0.47;;
64142;SDS011;50437;51.970;5.904;2023-03-07T15:16:48;4.68;;;0.50;;
64142;SDS011;50437;51.970;5.904;2023-03-07T15:19:20;1.83;;;0.30;;
64142;SDS011;50437;51.970;5.904;2023-03-07T15:22:06;4.00;;;0.40;;
64142;SDS011;50437;51.970;5.904;2023-03-07T15:24:44;3.70;;;0.55;;
64142;SDS011;50437;51.970;5.904;2023-03-07T15:27:13;4.18;;;0.40;;
64142;SDS011;50437;51.970;5.904;2023-03-07T15:29:45;5.55;;;0.30;;
64142;SDS011;50437;51.970;5.904;2023-03-07T15:32:33;0.85;;;0.30;;
64142;SDS011;50437;51.970;5.904;2023-03-07T15:37:32;1.08;;;0.25;;
64142;SDS011;50437;51.970;5.904;2023-03-07T15:42:33;5.45;;;0.82;;
64142;SDS011;50437;51.970;5.904;2023-03-07T15:45:31;0.60;;;0.40;;
64142;SDS011;50437;51.970;5.904;2023-03-07T15:48:00;4.90;;;0.30;;
64142;SDS011;50437;51.970;5.904;2023-03-07T15:50:33;2.35;;;0.45;;
64142;SDS011;50437;51.970;5.904;2023-03-07T15:53:01;10.02;;;1.23;;
64142;SDS011;50437;51.970;5.904;2023-03-07T15:55:32;1.48;;;0.40;;
64142;SDS011;50437;51.970;5.904;2023-03-07T15:58:00;4.20;;;0.60;;
64142;SDS011;50437;51.970;5.904;2023-03-07T16:05:49;3.22;;;0.60;;
64142;SDS011;50437;51.970;5.904;2023-03-07T16:08:16;4.18;;;0.70;;
64142;SDS011;50437;51.970;5.904;2023-03-07T16:10:45;2.78;;;0.75;;
64142;SDS011;50437;51.970;5.904;2023-03-07T16:13:18;1.80;;;0.47;;
64142;SDS011;50437;51.970;5.904;2023-03-07T16:18:53;5.15;;;0.65;;
64142;SDS011;50437;51.970;5.904;2023-03-07T16:21:22;4.07;;;0.43;;
64142;SDS011;50437;51.970;5.904;2023-03-07T16:23:49;4.43;;;0.60;;
64142;SDS011;50437;51.970;5.904;2023-03-07T16:26:16;7.00;;;0.60;;
64142;SDS011;50437;51.970;5.904;2023-03-07T16:28:46;1.77;;;0.40;;
64142;SDS011;50437;51.970;5.904;2023-03-07T16:31:16;3.88;;;0.40;;
64142;SDS011;50437;51.970;5.904;2023-03-07T16:33:43;1.05;;;0.88;;
64142;SDS011;50437;51.970;5.904;2023-03-07T16:36:11;1.00;;;0.65;;
64142;SDS011;50437;51.970;5.904;2023-03-07T16:38:38;1.15;;;0.40;;
64142;SDS011;50437;51.970;5.904;2023-03-07T16:41:26;2.05;;;0.57;;
64142;SDS011;50437;51.970;5.904;2023-03-07T16:43:52;1.85;;;0.55;;
64142;SDS011;50437;51.970;5.904;2023-03-07T16:46:20;3.80;;;0.90;;
64142;SDS011;50437;51.970;5.904;2023-03-07T16:48:47;4.35;;;0.50;;
64142;SDS011;50437;51.970;5.904;2023-03-07T16:51:18;5.13;;;0.73;;
64142;SDS011;50437;51.970;5.904;2023-03-07T16:53:46;1.90;;;0.63;;
64142;SDS011;50437;51.970;5.904;2023-03-07T16:56:24;2.60;;;0.80;;
64142;SDS011;50437;51.970;5.904;2023-03-07T16:58:50;1.70;;;0.88;;
64142;SDS011;50437;51.970;5.904;2023-03-07T17:01:17;2.22;;;0.82;;
64142;SDS011;50437;51.970;5.904;2023-03-07T17:03:43;1.53;;;0.93;;
64142;SDS011;50437;51.970;5.904;2023-03-07T17:06:13;1.35;;;0.75;;
64142;SDS011;50437;51.970;5.904;2023-03-07T17:08:44;6.32;;;0.90;;
64142;SDS011;50437;51.970;5.904;2023-03-07T17:11:20;2.92;;;1.00;;
64142;SDS011;50437;51.970;5.904;2023-03-07T17:13:49;5.28;;;1.58;;
64142;SDS011;50437;51.970;5.904;2023-03-07T17:16:18;2.78;;;2.10;;
64142;SDS011;50437;51.970;5.904;2023-03-07T17:18:45;7.15;;;0.70;;
64142;SDS011;50437;51.970;5.904;2023-03-07T17:21:15;8.15;;;1.20;;
64142;SDS011;50437;51.970;5.904;2023-03-07T17:23:45;3.92;;;1.05;;
64142;SDS011;50437;51.970;5.904;2023-03-07T17:26:15;0.77;;;0.73;;
64142;SDS011;50437;51.970;5.904;2023-03-07T17:28:46;6.05;;;1.27;;
64142;SDS011;50437;51.970;5.904;2023-03-07T17:31:16;5.68;;;1.20;;
64142;SDS011;50437;51.970;5.904;2023-03-07T17:36:11;3.78;;;0.95;;
64142;SDS011;50437;51.970;5.904;2023-03-07T17:38:37;3.92;;;2.25;;
64142;SDS011;50437;51.970;5.904;2023-03-07T17:41:04;3.10;;;1.88;;
64142;SDS011;50437;51.970;5.904;2023-03-07T17:43:30;3.47;;;2.22;;
64142;SDS011;50437;51.970;5.904;2023-03-07T17:45:58;5.25;;;2.25;;
64142;SDS011;50437;51.970;5.904;2023-03-07T17:48:24;7.43;;;2.95;;